Folletts, Iowa
Current Conditions -  °F | °C
As of 11:55 PM on Friday 19 Dec 2014 (Local Time) from KCWI Reporting Station
Overcast Overcast  
Wind Chill: 20°   Ceiling: 5000
Heat Index: 27°   Visibility: 10mi
Dew Point: 21°   Wind: 6mph
Humidity: 80%   Direction: 160°SSE
Pressure: 30.28"   Gusts: NA
Location:  41.7772°N, 90.3074°W
Report Text: KCWI 200555Z AUTO 16005KT 10SM OVC050 M03/M06 A3028 RMK AO1 11030 21060 54000
Loading
Personal Weather Stations






























Interactive Weather Map New forecast layout! Learn more

10-Day Weather Forecast

Advertisements
Track Severe Weather on mobile